createdAt,value
2023-03-26T00:01:40.704Z,94610.36
2023-03-26T00:04:09.324Z,94611.02
2023-03-26T00:06:40.083Z,94605.11
2023-03-26T00:09:10.919Z,94604.97
2023-03-26T00:11:39.037Z,94601.69
2023-03-26T00:14:07.051Z,94598.41
2023-03-26T00:16:36.180Z,94603.42
2023-03-26T00:19:04.280Z,94598.84
2023-03-26T00:21:32.366Z,94601.44
2023-03-26T00:24:06.809Z,94610.15
2023-03-26T00:26:37.704Z,94613.92
2023-03-26T00:29:07.122Z,94616.48
2023-03-26T00:31:37.997Z,94618.52
2023-03-26T00:34:06.969Z,94620.94
2023-03-26T00:36:36.263Z,94620.38
2023-03-26T00:39:05.858Z,94618.30
2023-03-26T00:41:37.377Z,94620.95
2023-03-26T00:44:05.635Z,94621.83
2023-03-26T00:46:33.636Z,94619.73
2023-03-26T00:49:03.990Z,94615.36
2023-03-26T00:51:34.012Z,94606.31
2023-03-26T00:54:02.517Z,94612.11
2023-03-26T00:56:31.160Z,94608.36
2023-03-26T00:59:00.363Z,94609.92
2023-03-26T01:01:30.480Z,94612.70
2023-03-26T01:04:28.570Z,94608.48
2023-03-26T01:07:29.708Z,94606.36
2023-03-26T01:10:00.061Z,94605.09
2023-03-26T01:12:34.109Z,94604.00
2023-03-26T01:15:04.109Z,94604.19
2023-03-26T01:17:38.007Z,94602.88
2023-03-26T01:20:08.436Z,94601.01
2023-03-26T01:22:37.850Z,94604.71
2023-03-26T01:25:07.380Z,94601.48
2023-03-26T01:27:39.074Z,94601.57
2023-03-26T01:30:49.753Z,94601.39
2023-03-26T01:33:44.017Z,94603.92
2023-03-26T01:36:23.680Z,94609.05
2023-03-26T01:39:00.620Z,94609.03
2023-03-26T01:41:51.432Z,94608.44
2023-03-26T01:44:41.136Z,94604.06
2023-03-26T01:47:11.553Z,94599.26
2023-03-26T01:49:40.001Z,94600.15
2023-03-26T01:52:18.176Z,94600.45
2023-03-26T01:54:47.115Z,94596.05
2023-03-26T01:57:36.762Z,94589.55
2023-03-26T02:00:12.242Z,94591.09
2023-03-26T02:03:05.995Z,94589.65
2023-03-26T02:05:44.761Z,94592.11
2023-03-26T02:08:21.227Z,94603.34
2023-03-26T02:10:58.865Z,94605.48
2023-03-26T02:13:27.452Z,94607.61
2023-03-26T02:16:01.951Z,94610.45
2023-03-26T02:18:36.819Z,94610.53
2023-03-26T02:21:12.972Z,94607.30
2023-03-26T02:23:46.906Z,94600.89
2023-03-26T02:26:17.454Z,94600.47
2023-03-26T02:29:08.837Z,94600.09
2023-03-26T02:31:37.973Z,94604.41
2023-03-26T02:34:06.390Z,94598.17
2023-03-26T02:36:36.436Z,94598.12
2023-03-26T02:39:05.798Z,94596.36
2023-03-26T02:41:40.602Z,94595.85
2023-03-26T02:44:10.856Z,94595.17
2023-03-26T02:46:57.176Z,94599.61
2023-03-26T02:49:51.365Z,94604.42
2023-03-26T02:52:43.228Z,94600.30
2023-03-26T02:55:11.401Z,94604.77
2023-03-26T02:57:41.684Z,94605.42
2023-03-26T03:00:17.302Z,94602.11
2023-03-26T03:03:27.682Z,94606.90
2023-03-26T03:06:18.970Z,94608.53
2023-03-26T03:08:59.105Z,94607.45
2023-03-26T03:11:40.791Z,94601.77
2023-03-26T03:14:09.410Z,94602.09
2023-03-26T03:16:37.546Z,94599.50
2023-03-26T03:19:11.252Z,94601.90
2023-03-26T03:21:41.952Z,94598.87
2023-03-26T03:24:11.781Z,94600.89
2023-03-26T03:26:46.273Z,94595.11
2023-03-26T03:29:28.386Z,94608.52
2023-03-26T03:31:56.762Z,94609.45
2023-03-26T03:34:38.753Z,94612.38
2023-03-26T03:37:07.032Z,94615.01
2023-03-26T03:39:45.700Z,94606.99
2023-03-26T03:42:16.382Z,94607.34
2023-03-26T03:44:44.854Z,94604.34
2023-03-26T03:47:29.043Z,94602.64
2023-03-26T03:50:00.211Z,94608.02
2023-03-26T03:52:28.920Z,94609.30
2023-03-26T03:55:00.522Z,94612.65
2023-03-26T03:57:55.055Z,94612.26
2023-03-26T04:00:25.388Z,94610.36
2023-03-26T04:03:06.538Z,94612.70
2023-03-26T04:05:35.064Z,94616.59
2023-03-26T04:08:03.286Z,94615.99
2023-03-26T04:10:43.888Z,94617.52
2023-03-26T04:13:36.454Z,94620.04
2023-03-26T04:16:33.892Z,94622.58
2023-03-26T04:19:04.070Z,94623.95
2023-03-26T04:21:32.587Z,94624.13
2023-03-26T04:24:01.902Z,94620.27
2023-03-26T04:26:50.164Z,94620.00
2023-03-26T04:29:24.610Z,94624.55
2023-03-26T04:32:06.627Z,94623.58
2023-03-26T04:34:34.943Z,94622.36
2023-03-26T04:37:16.609Z,94626.63
2023-03-26T04:39:46.676Z,94629.23
2023-03-26T04:42:33.479Z,94628.45
2023-03-26T04:45:17.707Z,94630.86
2023-03-26T04:47:46.633Z,94630.79
2023-03-26T04:50:15.603Z,94627.33
2023-03-26T04:52:45.474Z,94623.61
2023-03-26T04:55:44.157Z,94620.41
2023-03-26T04:58:19.613Z,94619.06
2023-03-26T05:01:10.556Z,94618.92
2023-03-26T05:03:42.142Z,94619.88
2023-03-26T05:06:13.764Z,94615.08
2023-03-26T05:08:42.173Z,94620.17
2023-03-26T05:11:13.561Z,94617.48
2023-03-26T05:13:43.097Z,94618.52
2023-03-26T05:16:13.787Z,94616.35
2023-03-26T05:18:47.960Z,94613.85
2023-03-26T05:21:16.462Z,94608.66
2023-03-26T05:23:45.057Z,94611.77
2023-03-26T05:26:19.621Z,94615.85
2023-03-26T05:28:47.693Z,94619.77
2023-03-26T05:31:23.596Z,94621.58
2023-03-26T05:33:55.227Z,94623.28
2023-03-26T05:36:24.469Z,94621.33
2023-03-26T05:39:05.679Z,94623.21
2023-03-26T05:42:09.504Z,94624.02
2023-03-26T05:44:52.652Z,94629.02
2023-03-26T05:47:26.382Z,94628.80
2023-03-26T05:49:54.673Z,94635.16
2023-03-26T05:52:23.273Z,94641.02
2023-03-26T05:55:18.616Z,94645.04
2023-03-26T05:58:05.530Z,94650.77
2023-03-26T06:01:08.614Z,94653.13
2023-03-26T06:04:02.893Z,94658.56
2023-03-26T06:06:35.387Z,94651.27
2023-03-26T06:09:04.592Z,94653.33
2023-03-26T06:11:33.188Z,94648.05
2023-03-26T06:14:03.421Z,94645.45
2023-03-26T06:16:32.701Z,94646.45
2023-03-26T06:19:21.301Z,94654.35
2023-03-26T06:22:03.212Z,94659.97
2023-03-26T06:24:36.512Z,94660.98
2023-03-26T06:27:41.887Z,94665.64
2023-03-26T06:30:28.482Z,94671.10
2023-03-26T06:33:09.640Z,94673.05
2023-03-26T06:35:45.570Z,94672.92
2023-03-26T06:38:14.912Z,94675.40
2023-03-26T06:40:42.991Z,94679.60
2023-03-26T06:43:23.275Z,94675.14
2023-03-26T06:46:12.021Z,94676.15
2023-03-26T06:48:42.339Z,94668.57
2023-03-26T06:51:25.842Z,94671.90
2023-03-26T06:54:10.008Z,94672.11
2023-03-26T06:56:52.295Z,94678.14
2023-03-26T06:59:47.060Z,94676.10
2023-03-26T07:02:34.008Z,94685.89
2023-03-26T07:05:20.678Z,94679.08
2023-03-26T07:08:14.216Z,94687.70
2023-03-26T07:11:16.814Z,94690.50
2023-03-26T07:14:17.351Z,94702.32
2023-03-26T07:17:17.859Z,94698.85
2023-03-26T07:20:01.677Z,94698.89
2023-03-26T07:22:30.665Z,94697.65
2023-03-26T07:25:08.958Z,94692.66
2023-03-26T07:28:24.414Z,94692.08
2023-03-26T07:31:34.939Z,94688.93
2023-03-26T07:34:44.845Z,94688.64
2023-03-26T07:37:43.441Z,94691.52
2023-03-26T07:40:36.262Z,94692.79
2023-03-26T07:44:06.048Z,94689.09
2023-03-26T07:46:39.360Z,94684.69
2023-03-26T07:49:31.673Z,94677.17
2023-03-26T07:52:15.520Z,94677.27
2023-03-26T07:55:03.695Z,94673.34
2023-03-26T07:57:56.957Z,94672.46
2023-03-26T08:01:01.952Z,94665.77
2023-03-26T08:04:23.414Z,94667.56
2023-03-26T08:07:31.075Z,94670.21
2023-03-26T08:10:49.477Z,94664.54
2023-03-26T08:13:30.680Z,94661.59
2023-03-26T08:16:24.000Z,94653.06
2023-03-26T08:19:21.155Z,94655.55
2023-03-26T08:22:20.933Z,94648.05
2023-03-26T08:25:17.919Z,94648.64
2023-03-26T08:27:58.280Z,94647.56
2023-03-26T08:30:27.781Z,94651.52
2023-03-26T08:33:18.684Z,94649.10
2023-03-26T08:35:47.648Z,94650.75
2023-03-26T08:38:21.387Z,94651.46
2023-03-26T08:40:58.755Z,94652.84
2023-03-26T08:43:58.407Z,94649.86
2023-03-26T08:46:34.693Z,94653.58
2023-03-26T08:49:11.152Z,94655.94
2023-03-26T08:51:41.916Z,94659.27
2023-03-26T08:54:28.366Z,94661.64
2023-03-26T08:56:59.288Z,94664.20
2023-03-26T08:59:45.998Z,94667.48
2023-03-26T09:02:42.879Z,94674.58
2023-03-26T09:05:30.403Z,94678.15
2023-03-26T09:08:20.599Z,94683.09
2023-03-26T09:11:10.984Z,94685.88
2023-03-26T09:14:17.412Z,94685.36
2023-03-26T09:16:55.916Z,94682.32
2023-03-26T09:19:50.212Z,94680.91
2023-03-26T09:22:41.751Z,94680.97
2023-03-26T09:25:24.693Z,94680.18
2023-03-26T09:27:56.159Z,94675.37
2023-03-26T09:30:53.790Z,94673.41
2023-03-26T09:33:22.103Z,94679.02
2023-03-26T09:36:18.366Z,94675.08
2023-03-26T09:39:09.924Z,94675.34
2023-03-26T09:42:05.561Z,94674.84
2023-03-26T09:45:18.260Z,94672.02
2023-03-26T09:47:58.581Z,94674.15
2023-03-26T09:50:32.498Z,94673.66
2023-03-26T09:53:09.274Z,94673.86
2023-03-26T09:55:52.954Z,94670.86
2023-03-26T09:58:33.524Z,94676.42
2023-03-26T10:01:12.581Z,94674.25
2023-03-26T10:03:56.633Z,94670.95
2023-03-26T10:06:40.064Z,94673.86
2023-03-26T10:09:19.647Z,94678.95
2023-03-26T10:12:21.356Z,94675.21
2023-03-26T10:15:11.013Z,94670.37
2023-03-26T10:17:48.342Z,94681.21
2023-03-26T10:20:37.741Z,94672.20
2023-03-26T10:23:22.067Z,94669.66
2023-03-26T10:26:08.864Z,94668.17
2023-03-26T10:28:53.151Z,94666.34
2023-03-26T10:31:27.334Z,94665.36
2023-03-26T10:34:28.773Z,94669.70
2023-03-26T10:37:08.605Z,94667.71
2023-03-26T10:39:55.674Z,94664.86
2023-03-26T10:42:52.734Z,94663.30
2023-03-26T10:45:41.185Z,94657.23
2023-03-26T10:48:47.070Z,94658.80
2023-03-26T10:51:51.576Z,94657.89
2023-03-26T10:54:30.091Z,94657.15
2023-03-26T10:57:00.778Z,94653.21
2023-03-26T10:59:30.829Z,94656.85
2023-03-26T11:02:30.617Z,94651.38
2023-03-26T11:05:31.105Z,94651.81
2023-03-26T11:08:08.393Z,94650.10
2023-03-26T11:10:42.212Z,94649.00
2023-03-26T11:13:38.116Z,94643.66
2023-03-26T11:16:22.493Z,94641.64
2023-03-26T11:18:59.153Z,94649.27
2023-03-26T11:21:33.594Z,94649.95
2023-03-26T11:24:31.276Z,94649.38
2023-03-26T11:27:16.928Z,94647.40
2023-03-26T11:29:55.216Z,94643.29
2023-03-26T11:32:44.673Z,94639.55
2023-03-26T11:35:39.878Z,94635.23
2023-03-26T11:38:21.809Z,94636.78
2023-03-26T11:40:55.324Z,94643.04
2023-03-26T11:44:11.217Z,94635.11
2023-03-26T11:46:43.956Z,94639.77
2023-03-26T11:49:16.800Z,94636.16
2023-03-26T11:51:47.914Z,94639.04
2023-03-26T11:54:16.619Z,94638.05
2023-03-26T11:57:05.688Z,94643.52
2023-03-26T11:59:57.551Z,94631.45
2023-03-26T12:02:29.937Z,94628.36
2023-03-26T12:05:19.465Z,94628.80
2023-03-26T12:07:57.435Z,94630.83
2023-03-26T12:10:27.485Z,94631.18
2023-03-26T12:12:59.136Z,94633.46
2023-03-26T12:15:29.337Z,94633.13
2023-03-26T12:17:59.152Z,94634.16
2023-03-26T12:20:34.747Z,94627.48
2023-03-26T12:23:05.329Z,94616.09
2023-03-26T12:25:37.665Z,94612.39
2023-03-26T12:28:15.758Z,94610.37
2023-03-26T12:31:03.199Z,94601.77
2023-03-26T12:33:38.970Z,94601.29
2023-03-26T12:36:25.601Z,94602.29
2023-03-26T12:39:42.599Z,94594.82
2023-03-26T12:44:42.120Z,94584.92
2023-03-26T12:44:58.741Z,94576.29
2023-03-26T12:47:58.514Z,94577.96
2023-03-26T12:50:34.237Z,94575.88
2023-03-26T12:53:37.739Z,94572.02
2023-03-26T12:56:20.017Z,94565.25
2023-03-26T12:58:57.847Z,94561.99
2023-03-26T13:01:45.537Z,94561.20
2023-03-26T13:04:30.872Z,94566.15
2023-03-26T13:07:17.123Z,94555.21
2023-03-26T13:10:18.046Z,94559.88
2023-03-26T13:12:51.561Z,94556.71
2023-03-26T13:15:25.185Z,94556.99
2023-03-26T13:17:53.727Z,94563.69
2023-03-26T13:20:43.587Z,94558.71
2023-03-26T13:23:26.829Z,94549.59
2023-03-26T13:26:09.508Z,94540.46
2023-03-26T13:28:49.419Z,94535.66
2023-03-26T13:31:20.685Z,94535.27
2023-03-26T13:34:18.784Z,94526.15
2023-03-26T13:37:13.010Z,94517.31
2023-03-26T13:40:12.610Z,94522.13
2023-03-26T13:42:47.020Z,94512.70
2023-03-26T13:45:30.274Z,94517.38
2023-03-26T13:47:59.631Z,94507.31
2023-03-26T13:50:34.122Z,94506.63
2023-03-26T13:53:27.304Z,94508.29
2023-03-26T13:56:00.568Z,94515.58
2023-03-26T13:58:42.632Z,94508.40
2023-03-26T14:01:22.772Z,94508.81
2023-03-26T14:04:23.779Z,94507.09
2023-03-26T14:07:06.901Z,94509.08
2023-03-26T14:10:12.570Z,94508.33
2023-03-26T14:12:56.639Z,94522.15
2023-03-26T14:15:50.051Z,94529.59
2023-03-26T14:18:52.206Z,94535.64
2023-03-26T14:21:26.317Z,94540.37
2023-03-26T14:24:23.393Z,94537.02
2023-03-26T14:27:13.190Z,94532.77
2023-03-26T14:30:23.042Z,94529.98
2023-03-26T14:33:12.925Z,94522.67
2023-03-26T14:35:56.152Z,94516.86
2023-03-26T14:38:52.387Z,94509.66
2023-03-26T14:41:53.754Z,94507.91
2023-03-26T14:44:56.640Z,94509.27
2023-03-26T14:47:25.383Z,94501.34
2023-03-26T14:50:15.780Z,94497.64
2023-03-26T14:52:51.684Z,94493.76
2023-03-26T14:55:45.116Z,94492.48
2023-03-26T14:59:02.881Z,94493.11
2023-03-26T15:02:09.126Z,94485.58
2023-03-26T15:04:57.123Z,94481.86
2023-03-26T15:08:01.669Z,94478.58
2023-03-26T15:10:49.707Z,94476.73
2023-03-26T15:13:53.766Z,94476.65
2023-03-26T15:17:03.817Z,94475.20
2023-03-26T15:19:41.140Z,94475.80
2023-03-26T15:22:46.730Z,94467.96
2023-03-26T15:25:36.507Z,94464.52
2023-03-26T15:28:24.772Z,94466.39
2023-03-26T15:31:06.694Z,94462.05
2023-03-26T15:33:53.414Z,94457.50
2023-03-26T15:36:39.960Z,94460.04
2023-03-26T15:39:58.735Z,94455.67
2023-03-26T15:42:38.307Z,94451.91
2023-03-26T15:45:42.225Z,94446.41
2023-03-26T15:48:13.224Z,94444.27
2023-03-26T15:50:59.983Z,94436.70
2023-03-26T15:53:53.458Z,94438.79
2023-03-26T15:56:49.107Z,94436.92
2023-03-26T15:59:31.215Z,94440.12
2023-03-26T16:02:16.346Z,94432.74
2023-03-26T16:05:21.383Z,94436.34
2023-03-26T16:08:14.975Z,94435.00
2023-03-26T16:10:58.299Z,94433.59
2023-03-26T16:13:26.619Z,94430.30
2023-03-26T16:16:04.057Z,94433.63
2023-03-26T16:18:34.015Z,94427.60
2023-03-26T16:21:37.209Z,94433.17
2023-03-26T16:24:10.467Z,94436.94
2023-03-26T16:26:44.662Z,94441.23
2023-03-26T16:29:31.610Z,94444.50
2023-03-26T16:32:07.802Z,94445.42
2023-03-26T16:35:05.698Z,94440.39
2023-03-26T16:37:36.882Z,94445.38
2023-03-26T16:40:17.434Z,94448.14
2023-03-26T16:43:30.565Z,94455.72
2023-03-26T16:46:07.225Z,94454.60
2023-03-26T16:49:01.287Z,94451.80
2023-03-26T16:52:00.782Z,94454.11
2023-03-26T16:54:47.296Z,94454.68
2023-03-26T16:57:37.128Z,94459.45
2023-03-26T17:00:16.657Z,94460.90
2023-03-26T17:03:17.150Z,94463.69
2023-03-26T17:05:54.206Z,94467.73
2023-03-26T17:09:03.588Z,94467.06
2023-03-26T17:11:38.610Z,94462.77
2023-03-26T17:14:34.411Z,94466.55
2023-03-26T17:17:44.000Z,94467.33
2023-03-26T17:20:15.222Z,94463.35
2023-03-26T17:22:48.091Z,94459.54
2023-03-26T17:25:46.208Z,94455.88
2023-03-26T17:28:25.304Z,94449.86
2023-03-26T17:31:16.601Z,94446.14
2023-03-26T17:33:45.298Z,94447.91
2023-03-26T17:36:15.187Z,94448.75
2023-03-26T17:38:46.583Z,94444.57
2023-03-26T17:41:35.616Z,94446.48
2023-03-26T17:44:37.374Z,94448.71
2023-03-26T17:47:18.950Z,94444.77
2023-03-26T17:49:51.332Z,94440.72
2023-03-26T17:52:29.899Z,94437.70
2023-03-26T17:54:59.184Z,94436.54
2023-03-26T17:57:42.051Z,94437.08
2023-03-26T18:00:27.011Z,94433.23
2023-03-26T18:03:00.497Z,94438.05
2023-03-26T18:05:30.938Z,94438.54
2023-03-26T18:08:25.307Z,94440.88
2023-03-26T18:11:16.632Z,94432.84
2023-03-26T18:13:50.859Z,94426.08
2023-03-26T18:16:24.519Z,94433.25
2023-03-26T18:19:17.610Z,94433.65
2023-03-26T18:22:03.779Z,94430.16
2023-03-26T18:24:37.286Z,94431.47
2023-03-26T18:27:12.170Z,94426.69
2023-03-26T18:29:56.603Z,94425.50
2023-03-26T18:32:33.875Z,94425.47
2023-03-26T18:35:24.163Z,94425.31
2023-03-26T18:37:59.143Z,94423.70
2023-03-26T18:40:41.176Z,94422.85
2023-03-26T18:43:28.808Z,94426.15
2023-03-26T18:46:03.652Z,94416.71
2023-03-26T18:48:31.983Z,94416.98
2023-03-26T18:51:05.036Z,94411.38
2023-03-26T18:54:13.297Z,94411.58
2023-03-26T18:56:43.822Z,94406.75
2023-03-26T18:59:32.598Z,94400.73
2023-03-26T19:02:05.497Z,94399.63
2023-03-26T19:04:37.000Z,94396.86
2023-03-26T19:07:13.730Z,94397.27
2023-03-26T19:09:43.539Z,94394.93
2023-03-26T19:12:18.947Z,94393.40
2023-03-26T19:14:57.711Z,94386.55
2023-03-26T19:17:30.133Z,94383.00
2023-03-26T19:19:58.610Z,94379.71
2023-03-26T19:22:29.518Z,94377.81
2023-03-26T19:25:01.049Z,94373.78
2023-03-26T19:27:29.617Z,94372.18
2023-03-26T19:29:58.022Z,94366.20
2023-03-26T19:32:32.805Z,94358.98
2023-03-26T19:35:04.227Z,94351.38
2023-03-26T19:37:32.843Z,94344.80
2023-03-26T19:40:29.734Z,94343.30
2023-03-26T19:42:58.503Z,94344.79
2023-03-26T19:45:27.138Z,94336.79
2023-03-26T19:48:07.708Z,94334.17
2023-03-26T19:50:52.584Z,94332.59
2023-03-26T19:53:32.653Z,94330.40
2023-03-26T19:56:13.523Z,94329.38
2023-03-26T19:58:42.968Z,94328.05
2023-03-26T20:01:18.887Z,94329.69
2023-03-26T20:03:49.651Z,94330.14
2023-03-26T20:06:23.719Z,94328.89
2023-03-26T20:08:56.336Z,94319.52
2023-03-26T20:11:34.327Z,94316.33
2023-03-26T20:14:07.363Z,94316.42
2023-03-26T20:16:35.819Z,94324.81
2023-03-26T20:19:04.723Z,94316.80
2023-03-26T20:21:34.775Z,94311.38
2023-03-26T20:24:14.711Z,94308.77
2023-03-26T20:26:43.723Z,94302.17
2023-03-26T20:29:13.070Z,94295.31
2023-03-26T20:31:42.564Z,94298.23
2023-03-26T20:34:15.327Z,94300.05
2023-03-26T20:36:44.194Z,94299.51
2023-03-26T20:39:12.669Z,94293.91
2023-03-26T20:41:45.621Z,94289.46
2023-03-26T20:44:16.782Z,94285.46
2023-03-26T20:46:47.019Z,94279.90
2023-03-26T20:49:16.067Z,94274.87
2023-03-26T20:51:45.690Z,94265.73
2023-03-26T20:54:19.484Z,94265.70
2023-03-26T20:56:49.293Z,94265.91
2023-03-26T20:59:21.870Z,94263.34
2023-03-26T21:01:51.458Z,94266.90
2023-03-26T21:04:20.783Z,94265.30
2023-03-26T21:06:49.584Z,94264.05
2023-03-26T21:09:18.922Z,94261.24
2023-03-26T21:11:57.081Z,94259.36
2023-03-26T21:14:30.313Z,94262.68
2023-03-26T21:16:59.152Z,94261.62
2023-03-26T21:19:27.504Z,94259.36
2023-03-26T21:22:27.833Z,94255.19
2023-03-26T21:25:17.247Z,94253.52
2023-03-26T21:27:48.162Z,94244.02
2023-03-26T21:30:17.792Z,94240.11
2023-03-26T21:32:46.744Z,94235.73
2023-03-26T21:35:16.567Z,94233.34
2023-03-26T21:37:48.742Z,94229.02
2023-03-26T21:40:19.079Z,94219.99
2023-03-26T21:42:50.539Z,94216.20
2023-03-26T21:45:19.834Z,94209.52
2023-03-26T21:47:48.857Z,94204.34
2023-03-26T21:50:20.672Z,94201.11
2023-03-26T21:52:50.798Z,94197.36
2023-03-26T21:55:23.805Z,94198.30
2023-03-26T21:58:43.339Z,94198.08
2023-03-26T22:01:20.197Z,94188.83
2023-03-26T22:04:30.405Z,94184.70
2023-03-26T22:07:10.385Z,94185.91
2023-03-26T22:09:38.711Z,94180.17
2023-03-26T22:12:07.219Z,94174.83
2023-03-26T22:14:35.432Z,94173.02
2023-03-26T22:17:03.726Z,94169.15
2023-03-26T22:19:31.981Z,94163.58
2023-03-26T22:22:00.690Z,94154.50
2023-03-26T22:24:29.090Z,94144.16
2023-03-26T22:26:57.278Z,94135.71
2023-03-26T22:29:25.381Z,94125.73
2023-03-26T22:31:53.492Z,94115.82
2023-03-26T22:34:23.220Z,94105.13
2023-03-26T22:36:52.542Z,94106.58
2023-03-26T22:39:20.612Z,94108.75
2023-03-26T22:41:48.980Z,94109.82
2023-03-26T22:44:20.172Z,94116.66
2023-03-26T22:46:51.760Z,94119.71
2023-03-26T22:49:21.085Z,94118.29
2023-03-26T22:51:50.426Z,94113.77
2023-03-26T22:54:18.892Z,94113.77
2023-03-26T22:56:47.063Z,94110.17
2023-03-26T22:59:15.528Z,94105.96
2023-03-26T23:01:44.448Z,94098.42
2023-03-26T23:04:13.129Z,94098.25
2023-03-26T23:07:00.289Z,94085.05
2023-03-26T23:09:28.480Z,94080.06
2023-03-26T23:11:56.781Z,94081.27
2023-03-26T23:14:25.162Z,94077.46
2023-03-26T23:16:53.238Z,94072.90
2023-03-26T23:19:21.903Z,94073.36
2023-03-26T23:21:49.954Z,94074.88
2023-03-26T23:24:18.147Z,94077.42
2023-03-26T23:29:17.463Z,94073.49
2023-03-26T23:31:45.652Z,94067.30
2023-03-26T23:34:14.311Z,94063.43
2023-03-26T23:36:42.619Z,94065.46
2023-03-26T23:39:11.100Z,94056.94
2023-03-26T23:41:39.287Z,94052.42
2023-03-26T23:44:07.592Z,94047.34
2023-03-26T23:46:35.548Z,94036.19
2023-03-26T23:49:03.910Z,94029.33
2023-03-26T23:51:32.686Z,94021.10
2023-03-26T23:54:01.688Z,94017.55
2023-03-26T23:56:30.220Z,94006.41
2023-03-26T23:58:59.327Z,94000.59
